sensor_id;sensor_type;location;lat;lon;timestamp;temperature;humidity
78522;SHT31;67819;51.972;5.678;2024-02-15T00:01:49;14.0;82.5
78522;SHT31;67819;51.972;5.678;2024-02-15T00:04:18;14.0;82.5
78522;SHT31;67819;51.972;5.678;2024-02-15T00:06:46;14.0;82.5
78522;SHT31;67819;51.972;5.678;2024-02-15T00:09:15;14.1;82.4
78522;SHT31;67819;51.972;5.678;2024-02-15T00:11:46;14.1;82.3
78522;SHT31;67819;51.972;5.678;2024-02-15T00:14:15;14.1;82.2
78522;SHT31;67819;51.972;5.678;2024-02-15T00:16:43;14.1;82.1
78522;SHT31;67819;51.972;5.678;2024-02-15T00:19:12;14.1;82.1
78522;SHT31;67819;51.972;5.678;2024-02-15T00:21:44;14.1;82.1
78522;SHT31;67819;51.972;5.678;2024-02-15T00:24:13;14.1;82.1
78522;SHT31;67819;51.972;5.678;2024-02-15T00:26:42;14.1;82.1
78522;SHT31;67819;51.972;5.678;2024-02-15T00:29:11;14.1;82.1
78522;SHT31;67819;51.972;5.678;2024-02-15T00:31:39;14.1;82.3
78522;SHT31;67819;51.972;5.678;2024-02-15T00:34:08;14.1;82.3
78522;SHT31;67819;51.972;5.678;2024-02-15T00:36:36;14.1;82.2
78522;SHT31;67819;51.972;5.678;2024-02-15T00:39:05;14.1;82.2
78522;SHT31;67819;51.972;5.678;2024-02-15T00:41:34;14.2;82.1
78522;SHT31;67819;51.972;5.678;2024-02-15T00:44:03;14.2;82.1
78522;SHT31;67819;51.972;5.678;2024-02-15T00:46:32;14.2;82.1
78522;SHT31;67819;51.972;5.678;2024-02-15T00:49:01;14.2;82.1
78522;SHT31;67819;51.972;5.678;2024-02-15T00:51:32;14.1;82.1
78522;SHT31;67819;51.972;5.678;2024-02-15T00:54:02;14.1;82.1
78522;SHT31;67819;51.972;5.678;2024-02-15T00:56:33;14.1;82.1
78522;SHT31;67819;51.972;5.678;2024-02-15T00:59:02;14.2;82.0
78522;SHT31;67819;51.972;5.678;2024-02-15T01:01:31;14.2;82.0
78522;SHT31;67819;51.972;5.678;2024-02-15T01:04:03;14.2;82.0
78522;SHT31;67819;51.972;5.678;2024-02-15T01:06:32;14.2;82.0
78522;SHT31;67819;51.972;5.678;2024-02-15T01:09:02;14.2;81.9
78522;SHT31;67819;51.972;5.678;2024-02-15T01:11:31;14.2;81.9
78522;SHT31;67819;51.972;5.678;2024-02-15T01:14:01;14.2;81.9
78522;SHT31;67819;51.972;5.678;2024-02-15T01:16:31;14.2;81.8
78522;SHT31;67819;51.972;5.678;2024-02-15T01:19:02;14.2;81.8
78522;SHT31;67819;51.972;5.678;2024-02-15T01:21:31;14.2;81.8
78522;SHT31;67819;51.972;5.678;2024-02-15T01:24:00;14.2;81.9
78522;SHT31;67819;51.972;5.678;2024-02-15T01:26:29;14.2;81.9
78522;SHT31;67819;51.972;5.678;2024-02-15T01:28:58;14.2;81.8
78522;SHT31;67819;51.972;5.678;2024-02-15T01:31:27;14.2;81.8
78522;SHT31;67819;51.972;5.678;2024-02-15T01:33:55;14.3;81.7
78522;SHT31;67819;51.972;5.678;2024-02-15T01:36:24;14.3;81.6
78522;SHT31;67819;51.972;5.678;2024-02-15T01:38:52;14.3;81.6
78522;SHT31;67819;51.972;5.678;2024-02-15T01:41:21;14.3;81.5
78522;SHT31;67819;51.972;5.678;2024-02-15T01:43:49;14.3;81.5
78522;SHT31;67819;51.972;5.678;2024-02-15T01:46:20;14.3;81.4
78522;SHT31;67819;51.972;5.678;2024-02-15T01:48:49;14.3;81.3
78522;SHT31;67819;51.972;5.678;2024-02-15T01:51:18;14.3;81.3
78522;SHT31;67819;51.972;5.678;2024-02-15T01:53:47;14.3;81.3
78522;SHT31;67819;51.972;5.678;2024-02-15T01:56:16;14.3;81.3
78522;SHT31;67819;51.972;5.678;2024-02-15T01:58:46;14.3;81.3
78522;SHT31;67819;51.972;5.678;2024-02-15T02:01:16;14.3;81.2
78522;SHT31;67819;51.972;5.678;2024-02-15T02:03:45;14.3;81.2
78522;SHT31;67819;51.972;5.678;2024-02-15T02:06:15;14.3;81.3
78522;SHT31;67819;51.972;5.678;2024-02-15T02:08:44;14.3;81.2
78522;SHT31;67819;51.972;5.678;2024-02-15T02:11:14;14.3;81.2
78522;SHT31;67819;51.972;5.678;2024-02-15T02:13:43;14.3;81.2
78522;SHT31;67819;51.972;5.678;2024-02-15T02:16:28;14.3;81.2
78522;SHT31;67819;51.972;5.678;2024-02-15T02:18:58;14.3;81.1
78522;SHT31;67819;51.972;5.678;2024-02-15T02:21:29;14.3;81.0
78522;SHT31;67819;51.972;5.678;2024-02-15T02:23:58;14.3;80.9
78522;SHT31;67819;51.972;5.678;2024-02-15T02:26:29;14.3;80.9
78522;SHT31;67819;51.972;5.678;2024-02-15T02:28:59;14.3;80.7
78522;SHT31;67819;51.972;5.678;2024-02-15T02:31:32;14.3;80.7
78522;SHT31;67819;51.972;5.678;2024-02-15T02:34:01;14.3;80.6
78522;SHT31;67819;51.972;5.678;2024-02-15T02:36:29;14.3;80.4
78522;SHT31;67819;51.972;5.678;2024-02-15T02:38:58;14.3;80.3
78522;SHT31;67819;51.972;5.678;2024-02-15T02:41:28;14.3;80.2
78522;SHT31;67819;51.972;5.678;2024-02-15T02:43:57;14.3;80.1
78522;SHT31;67819;51.972;5.678;2024-02-15T02:46:26;14.3;80.0
78522;SHT31;67819;51.972;5.678;2024-02-15T02:48:56;14.3;80.1
78522;SHT31;67819;51.972;5.678;2024-02-15T02:51:25;14.3;80.0
78522;SHT31;67819;51.972;5.678;2024-02-15T02:53:53;14.2;80.2
78522;SHT31;67819;51.972;5.678;2024-02-15T02:56:22;14.2;80.3
78522;SHT31;67819;51.972;5.678;2024-02-15T02:58:51;14.2;80.4
78522;SHT31;67819;51.972;5.678;2024-02-15T03:01:22;14.2;80.5
78522;SHT31;67819;51.972;5.678;2024-02-15T03:03:51;14.2;80.4
78522;SHT31;67819;51.972;5.678;2024-02-15T03:06:21;14.2;80.3
78522;SHT31;67819;51.972;5.678;2024-02-15T03:08:51;14.2;80.3
78522;SHT31;67819;51.972;5.678;2024-02-15T03:11:20;14.2;80.3
78522;SHT31;67819;51.972;5.678;2024-02-15T03:13:49;14.1;80.3
78522;SHT31;67819;51.972;5.678;2024-02-15T03:16:21;14.1;80.4
78522;SHT31;67819;51.972;5.678;2024-02-15T03:18:51;14.1;80.5
78522;SHT31;67819;51.972;5.678;2024-02-15T03:21:20;14.1;80.6
78522;SHT31;67819;51.972;5.678;2024-02-15T03:23:48;14.1;80.7
78522;SHT31;67819;51.972;5.678;2024-02-15T03:26:28;14.1;80.7
78522;SHT31;67819;51.972;5.678;2024-02-15T03:28:56;14.1;80.6
78522;SHT31;67819;51.972;5.678;2024-02-15T03:31:24;14.1;80.6
78522;SHT31;67819;51.972;5.678;2024-02-15T03:33:53;14.1;80.5
78522;SHT31;67819;51.972;5.678;2024-02-15T03:36:21;14.0;80.5
78522;SHT31;67819;51.972;5.678;2024-02-15T03:38:50;14.0;80.6
78522;SHT31;67819;51.972;5.678;2024-02-15T03:41:20;14.0;80.6
78522;SHT31;67819;51.972;5.678;2024-02-15T03:43:49;14.0;80.5
78522;SHT31;67819;51.972;5.678;2024-02-15T03:46:17;14.0;80.5
78522;SHT31;67819;51.972;5.678;2024-02-15T03:48:46;14.0;80.3
78522;SHT31;67819;51.972;5.678;2024-02-15T03:51:17;14.0;80.3
78522;SHT31;67819;51.972;5.678;2024-02-15T03:53:47;14.0;80.4
78522;SHT31;67819;51.972;5.678;2024-02-15T03:56:16;14.0;80.3
78522;SHT31;67819;51.972;5.678;2024-02-15T03:58:44;14.0;80.2
78522;SHT31;67819;51.972;5.678;2024-02-15T04:01:13;14.0;80.2
78522;SHT31;67819;51.972;5.678;2024-02-15T04:03:41;14.0;80.2
78522;SHT31;67819;51.972;5.678;2024-02-15T04:06:11;13.9;80.3
78522;SHT31;67819;51.972;5.678;2024-02-15T04:08:39;13.9;80.4
78522;SHT31;67819;51.972;5.678;2024-02-15T04:11:08;13.9;80.4
78522;SHT31;67819;51.972;5.678;2024-02-15T04:13:36;13.9;80.4
78522;SHT31;67819;51.972;5.678;2024-02-15T04:16:05;13.9;80.5
78522;SHT31;67819;51.972;5.678;2024-02-15T04:18:34;13.9;80.6
78522;SHT31;67819;51.972;5.678;2024-02-15T04:21:04;13.9;80.7
78522;SHT31;67819;51.972;5.678;2024-02-15T04:23:33;13.9;80.7
78522;SHT31;67819;51.972;5.678;2024-02-15T04:26:02;13.9;80.6
78522;SHT31;67819;51.972;5.678;2024-02-15T04:28:31;13.9;80.6
78522;SHT31;67819;51.972;5.678;2024-02-15T04:31:00;13.9;80.7
78522;SHT31;67819;51.972;5.678;2024-02-15T04:33:28;13.8;80.9
78522;SHT31;67819;51.972;5.678;2024-02-15T04:35:57;13.8;81.1
78522;SHT31;67819;51.972;5.678;2024-02-15T04:38:28;13.8;81.3
78522;SHT31;67819;51.972;5.678;2024-02-15T04:40:57;13.8;81.5
78522;SHT31;67819;51.972;5.678;2024-02-15T04:43:26;13.7;81.7
78522;SHT31;67819;51.972;5.678;2024-02-15T04:45:56;13.7;81.9
78522;SHT31;67819;51.972;5.678;2024-02-15T04:48:25;13.7;82.0
78522;SHT31;67819;51.972;5.678;2024-02-15T04:50:54;13.7;82.2
78522;SHT31;67819;51.972;5.678;2024-02-15T04:53:25;13.7;82.2
78522;SHT31;67819;51.972;5.678;2024-02-15T04:55:56;13.7;82.3
78522;SHT31;67819;51.972;5.678;2024-02-15T04:58:27;13.7;82.4
78522;SHT31;67819;51.972;5.678;2024-02-15T05:00:56;13.7;82.4
78522;SHT31;67819;51.972;5.678;2024-02-15T05:03:26;13.7;82.5
78522;SHT31;67819;51.972;5.678;2024-02-15T05:05:55;13.7;82.6
78522;SHT31;67819;51.972;5.678;2024-02-15T05:08:24;13.7;82.7
78522;SHT31;67819;51.972;5.678;2024-02-15T05:10:52;13.7;82.7
78522;SHT31;67819;51.972;5.678;2024-02-15T05:13:24;13.7;82.8
78522;SHT31;67819;51.972;5.678;2024-02-15T05:15:52;13.7;82.8
78522;SHT31;67819;51.972;5.678;2024-02-15T05:18:21;13.7;82.8
78522;SHT31;67819;51.972;5.678;2024-02-15T05:20:50;13.7;82.8
78522;SHT31;67819;51.972;5.678;2024-02-15T05:23:18;13.7;82.9
78522;SHT31;67819;51.972;5.678;2024-02-15T05:25:48;13.7;83.0
78522;SHT31;67819;51.972;5.678;2024-02-15T05:28:16;13.7;83.1
78522;SHT31;67819;51.972;5.678;2024-02-15T05:30:47;13.7;83.1
78522;SHT31;67819;51.972;5.678;2024-02-15T05:33:16;13.7;83.2
78522;SHT31;67819;51.972;5.678;2024-02-15T05:35:45;13.7;83.2
78522;SHT31;67819;51.972;5.678;2024-02-15T05:38:16;13.6;83.2
78522;SHT31;67819;51.972;5.678;2024-02-15T05:40:45;13.6;83.2
78522;SHT31;67819;51.972;5.678;2024-02-15T05:43:14;13.6;83.2
78522;SHT31;67819;51.972;5.678;2024-02-15T05:45:43;13.6;83.3
78522;SHT31;67819;51.972;5.678;2024-02-15T05:48:12;13.6;83.3
78522;SHT31;67819;51.972;5.678;2024-02-15T05:50:40;13.6;83.4
78522;SHT31;67819;51.972;5.678;2024-02-15T05:53:09;13.6;83.5
78522;SHT31;67819;51.972;5.678;2024-02-15T05:55:38;13.6;83.5
78522;SHT31;67819;51.972;5.678;2024-02-15T05:58:10;13.6;83.5
78522;SHT31;67819;51.972;5.678;2024-02-15T06:00:40;13.6;83.5
78522;SHT31;67819;51.972;5.678;2024-02-15T06:03:10;13.6;83.6
78522;SHT31;67819;51.972;5.678;2024-02-15T06:05:40;13.6;83.6
78522;SHT31;67819;51.972;5.678;2024-02-15T06:08:09;13.6;83.6
78522;SHT31;67819;51.972;5.678;2024-02-15T06:10:38;13.6;83.6
78522;SHT31;67819;51.972;5.678;2024-02-15T06:13:07;13.6;83.7
78522;SHT31;67819;51.972;5.678;2024-02-15T06:15:37;13.6;83.7
78522;SHT31;67819;51.972;5.678;2024-02-15T06:18:05;13.6;83.8
78522;SHT31;67819;51.972;5.678;2024-02-15T06:20:36;13.6;83.8
78522;SHT31;67819;51.972;5.678;2024-02-15T06:23:06;13.6;83.8
78522;SHT31;67819;51.972;5.678;2024-02-15T06:25:35;13.6;83.8
78522;SHT31;67819;51.972;5.678;2024-02-15T06:28:03;13.6;83.8
78522;SHT31;67819;51.972;5.678;2024-02-15T06:30:37;13.6;83.7
78522;SHT31;67819;51.972;5.678;2024-02-15T06:33:22;13.6;83.7
78522;SHT31;67819;51.972;5.678;2024-02-15T06:36:09;13.6;83.8
78522;SHT31;67819;51.972;5.678;2024-02-15T06:38:54;13.6;83.7
78522;SHT31;67819;51.972;5.678;2024-02-15T06:41:38;13.6;83.7
78522;SHT31;67819;51.972;5.678;2024-02-15T06:44:07;13.6;83.6
78522;SHT31;67819;51.972;5.678;2024-02-15T06:46:36;13.7;83.6
78522;SHT31;67819;51.972;5.678;2024-02-15T06:49:05;13.7;83.6
78522;SHT31;67819;51.972;5.678;2024-02-15T06:51:33;13.7;83.7
78522;SHT31;67819;51.972;5.678;2024-02-15T06:54:02;13.7;83.8
78522;SHT31;67819;51.972;5.678;2024-02-15T06:56:30;13.7;83.8
78522;SHT31;67819;51.972;5.678;2024-02-15T06:59:04;13.7;83.7
78522;SHT31;67819;51.972;5.678;2024-02-15T07:01:33;13.7;83.7
78522;SHT31;67819;51.972;5.678;2024-02-15T07:04:02;13.7;83.6
78522;SHT31;67819;51.972;5.678;2024-02-15T07:06:34;13.8;83.6
78522;SHT31;67819;51.972;5.678;2024-02-15T07:09:04;13.8;83.4
78522;SHT31;67819;51.972;5.678;2024-02-15T07:11:33;13.8;83.3
78522;SHT31;67819;51.972;5.678;2024-02-15T07:14:02;13.8;83.2
78522;SHT31;67819;51.972;5.678;2024-02-15T07:16:33;13.8;83.0
78522;SHT31;67819;51.972;5.678;2024-02-15T07:19:02;13.8;82.9
78522;SHT31;67819;51.972;5.678;2024-02-15T07:21:34;13.9;83.0
78522;SHT31;67819;51.972;5.678;2024-02-15T07:24:02;13.9;83.0
78522;SHT31;67819;51.972;5.678;2024-02-15T07:26:31;13.9;83.0
78522;SHT31;67819;51.972;5.678;2024-02-15T07:29:02;13.9;83.0
78522;SHT31;67819;51.972;5.678;2024-02-15T07:31:32;13.9;83.0
78522;SHT31;67819;51.972;5.678;2024-02-15T07:34:02;13.9;83.0
78522;SHT31;67819;51.972;5.678;2024-02-15T07:36:31;13.9;83.0
78522;SHT31;67819;51.972;5.678;2024-02-15T07:39:00;13.9;82.9
78522;SHT31;67819;51.972;5.678;2024-02-15T07:41:29;13.9;82.9
78522;SHT31;67819;51.972;5.678;2024-02-15T07:44:01;13.9;82.9
78522;SHT31;67819;51.972;5.678;2024-02-15T07:46:30;13.9;83.0
78522;SHT31;67819;51.972;5.678;2024-02-15T07:49:02;13.9;83.0
78522;SHT31;67819;51.972;5.678;2024-02-15T07:51:32;13.9;83.1
78522;SHT31;67819;51.972;5.678;2024-02-15T07:54:02;13.9;83.2
78522;SHT31;67819;51.972;5.678;2024-02-15T07:56:31;13.9;83.2
78522;SHT31;67819;51.972;5.678;2024-02-15T07:59:01;13.9;83.3
78522;SHT31;67819;51.972;5.678;2024-02-15T08:01:30;13.9;83.4
78522;SHT31;67819;51.972;5.678;2024-02-15T08:03:59;13.9;83.4
78522;SHT31;67819;51.972;5.678;2024-02-15T08:06:27;13.9;83.6
78522;SHT31;67819;51.972;5.678;2024-02-15T08:08:58;13.9;83.6
78522;SHT31;67819;51.972;5.678;2024-02-15T08:11:29;13.9;83.6
78522;SHT31;67819;51.972;5.678;2024-02-15T08:13:57;13.9;83.7
78522;SHT31;67819;51.972;5.678;2024-02-15T08:16:27;13.9;83.8
78522;SHT31;67819;51.972;5.678;2024-02-15T08:18:55;13.9;83.9
78522;SHT31;67819;51.972;5.678;2024-02-15T08:21:29;13.9;84.0
78522;SHT31;67819;51.972;5.678;2024-02-15T08:24:00;13.9;84.0
78522;SHT31;67819;51.972;5.678;2024-02-15T08:26:31;13.9;84.0
78522;SHT31;67819;51.972;5.678;2024-02-15T08:29:02;13.9;84.0
78522;SHT31;67819;51.972;5.678;2024-02-15T08:31:32;13.9;84.1
78522;SHT31;67819;51.972;5.678;2024-02-15T08:34:01;13.9;84.2
78522;SHT31;67819;51.972;5.678;2024-02-15T08:36:31;13.9;84.0
78522;SHT31;67819;51.972;5.678;2024-02-15T08:39:00;13.9;84.0
78522;SHT31;67819;51.972;5.678;2024-02-15T08:41:30;14.0;83.9
78522;SHT31;67819;51.972;5.678;2024-02-15T08:43:59;14.0;83.9
78522;SHT31;67819;51.972;5.678;2024-02-15T08:46:28;14.0;83.8
78522;SHT31;67819;51.972;5.678;2024-02-15T08:48:59;14.0;83.9
78522;SHT31;67819;51.972;5.678;2024-02-15T08:51:29;14.0;83.9
78522;SHT31;67819;51.972;5.678;2024-02-15T08:53:58;14.0;83.8
78522;SHT31;67819;51.972;5.678;2024-02-15T08:56:28;14.0;83.7
78522;SHT31;67819;51.972;5.678;2024-02-15T08:58:56;14.0;83.7
78522;SHT31;67819;51.972;5.678;2024-02-15T09:01:26;14.0;83.9
78522;SHT31;67819;51.972;5.678;2024-02-15T09:03:54;14.0;84.0
78522;SHT31;67819;51.972;5.678;2024-02-15T09:06:23;14.0;84.0
78522;SHT31;67819;51.972;5.678;2024-02-15T09:08:52;14.0;83.9
78522;SHT31;67819;51.972;5.678;2024-02-15T09:11:21;14.0;83.7
78522;SHT31;67819;51.972;5.678;2024-02-15T09:13:49;14.0;83.5
78522;SHT31;67819;51.972;5.678;2024-02-15T09:16:18;14.0;83.5
78522;SHT31;67819;51.972;5.678;2024-02-15T09:18:48;14.0;83.6
78522;SHT31;67819;51.972;5.678;2024-02-15T09:21:16;14.0;83.7
78522;SHT31;67819;51.972;5.678;2024-02-15T09:23:45;14.0;83.8
78522;SHT31;67819;51.972;5.678;2024-02-15T09:26:15;14.0;83.8
78522;SHT31;67819;51.972;5.678;2024-02-15T09:28:44;14.0;83.9
78522;SHT31;67819;51.972;5.678;2024-02-15T09:31:14;14.0;83.9
78522;SHT31;67819;51.972;5.678;2024-02-15T09:33:44;14.0;84.0
78522;SHT31;67819;51.972;5.678;2024-02-15T09:36:13;14.0;84.1
78522;SHT31;67819;51.972;5.678;2024-02-15T09:38:43;14.0;84.1
78522;SHT31;67819;51.972;5.678;2024-02-15T09:41:13;14.0;84.1
78522;SHT31;67819;51.972;5.678;2024-02-15T09:43:41;14.0;84.1
78522;SHT31;67819;51.972;5.678;2024-02-15T09:46:12;14.0;84.1
78522;SHT31;67819;51.972;5.678;2024-02-15T09:48:50;14.0;84.0
78522;SHT31;67819;51.972;5.678;2024-02-15T09:51:25;14.0;84.2
78522;SHT31;67819;51.972;5.678;2024-02-15T09:53:56;14.0;84.1
78522;SHT31;67819;51.972;5.678;2024-02-15T09:56:28;14.0;84.2
78522;SHT31;67819;51.972;5.678;2024-02-15T09:58:59;14.0;84.0
78522;SHT31;67819;51.972;5.678;2024-02-15T10:01:31;14.0;83.8
78522;SHT31;67819;51.972;5.678;2024-02-15T10:04:05;14.0;83.8
78522;SHT31;67819;51.972;5.678;2024-02-15T10:06:35;14.1;83.7
78522;SHT31;67819;51.972;5.678;2024-02-15T10:09:25;14.1;83.4
78522;SHT31;67819;51.972;5.678;2024-02-15T10:11:59;14.1;83.2
78522;SHT31;67819;51.972;5.678;2024-02-15T10:14:29;14.1;83.1
78522;SHT31;67819;51.972;5.678;2024-02-15T10:17:07;14.1;83.1
78522;SHT31;67819;51.972;5.678;2024-02-15T10:19:38;14.1;82.9
78522;SHT31;67819;51.972;5.678;2024-02-15T10:22:10;14.2;82.6
78522;SHT31;67819;51.972;5.678;2024-02-15T10:24:43;14.2;82.7
78522;SHT31;67819;51.972;5.678;2024-02-15T10:27:12;14.2;82.6
78522;SHT31;67819;51.972;5.678;2024-02-15T10:29:41;14.2;82.5
78522;SHT31;67819;51.972;5.678;2024-02-15T10:32:09;14.2;82.6
78522;SHT31;67819;51.972;5.678;2024-02-15T10:34:43;14.2;82.4
78522;SHT31;67819;51.972;5.678;2024-02-15T10:37:14;14.3;82.4
78522;SHT31;67819;51.972;5.678;2024-02-15T10:39:45;14.3;82.4
78522;SHT31;67819;51.972;5.678;2024-02-15T10:42:17;14.3;82.5
78522;SHT31;67819;51.972;5.678;2024-02-15T10:44:47;14.3;82.3
78522;SHT31;67819;51.972;5.678;2024-02-15T10:47:18;14.4;82.2
78522;SHT31;67819;51.972;5.678;2024-02-15T10:49:49;14.4;82.2
78522;SHT31;67819;51.972;5.678;2024-02-15T10:52:22;14.4;82.0
78522;SHT31;67819;51.972;5.678;2024-02-15T10:55:01;14.5;82.2
78522;SHT31;67819;51.972;5.678;2024-02-15T10:57:35;14.5;82.1
78522;SHT31;67819;51.972;5.678;2024-02-15T11:00:07;14.5;82.1
78522;SHT31;67819;51.972;5.678;2024-02-15T11:02:53;14.6;81.9
78522;SHT31;67819;51.972;5.678;2024-02-15T11:05:23;14.6;81.9
78522;SHT31;67819;51.972;5.678;2024-02-15T11:07:51;14.7;81.6
78522;SHT31;67819;51.972;5.678;2024-02-15T11:10:22;14.7;81.3
78522;SHT31;67819;51.972;5.678;2024-02-15T11:12:52;14.8;81.4
78522;SHT31;67819;51.972;5.678;2024-02-15T11:15:43;14.8;81.1
78522;SHT31;67819;51.972;5.678;2024-02-15T11:18:44;14.9;81.0
78522;SHT31;67819;51.972;5.678;2024-02-15T11:21:15;14.9;80.9
78522;SHT31;67819;51.972;5.678;2024-02-15T11:23:45;14.9;80.8
78522;SHT31;67819;51.972;5.678;2024-02-15T11:26:44;15.0;80.4
78522;SHT31;67819;51.972;5.678;2024-02-15T11:29:50;15.0;80.4
78522;SHT31;67819;51.972;5.678;2024-02-15T11:32:37;15.1;80.5
78522;SHT31;67819;51.972;5.678;2024-02-15T11:35:07;15.1;80.0
78522;SHT31;67819;51.972;5.678;2024-02-15T11:37:53;15.1;80.0
78522;SHT31;67819;51.972;5.678;2024-02-15T11:40:25;15.2;80.3
78522;SHT31;67819;51.972;5.678;2024-02-15T11:42:56;15.2;79.9
78522;SHT31;67819;51.972;5.678;2024-02-15T11:45:26;15.2;79.9
78522;SHT31;67819;51.972;5.678;2024-02-15T11:48:00;15.3;80.0
78522;SHT31;67819;51.972;5.678;2024-02-15T11:50:34;15.3;79.8
78522;SHT31;67819;51.972;5.678;2024-02-15T11:53:05;15.3;79.7
78522;SHT31;67819;51.972;5.678;2024-02-15T11:55:36;15.4;79.3
78522;SHT31;67819;51.972;5.678;2024-02-15T11:58:06;15.4;79.5
78522;SHT31;67819;51.972;5.678;2024-02-15T12:00:44;15.5;79.2
78522;SHT31;67819;51.972;5.678;2024-02-15T12:03:29;15.5;79.5
78522;SHT31;67819;51.972;5.678;2024-02-15T12:06:17;15.6;79.2
78522;SHT31;67819;51.972;5.678;2024-02-15T12:09:02;15.6;79.0
78522;SHT31;67819;51.972;5.678;2024-02-15T12:11:47;15.6;79.2
78522;SHT31;67819;51.972;5.678;2024-02-15T12:14:37;15.7;78.9
78522;SHT31;67819;51.972;5.678;2024-02-15T12:17:25;15.7;78.4
78522;SHT31;67819;51.972;5.678;2024-02-15T12:20:10;15.8;77.8
78522;SHT31;67819;51.972;5.678;2024-02-15T12:22:40;15.8;78.0
78522;SHT31;67819;51.972;5.678;2024-02-15T12:25:14;15.9;77.7
78522;SHT31;67819;51.972;5.678;2024-02-15T12:27:44;15.9;77.6
78522;SHT31;67819;51.972;5.678;2024-02-15T12:30:15;16.0;77.8
78522;SHT31;67819;51.972;5.678;2024-02-15T12:32:47;16.0;77.6
78522;SHT31;67819;51.972;5.678;2024-02-15T12:35:18;16.1;77.6
78522;SHT31;67819;51.972;5.678;2024-02-15T12:38:02;16.1;77.5
78522;SHT31;67819;51.972;5.678;2024-02-15T12:40:33;16.2;77.3
78522;SHT31;67819;51.972;5.678;2024-02-15T12:43:05;16.2;76.6
78522;SHT31;67819;51.972;5.678;2024-02-15T12:45:36;16.3;76.6
78522;SHT31;67819;51.972;5.678;2024-02-15T12:48:07;16.3;76.4
78522;SHT31;67819;51.972;5.678;2024-02-15T12:50:37;16.3;76.7
78522;SHT31;67819;51.972;5.678;2024-02-15T12:53:05;16.4;75.9
78522;SHT31;67819;51.972;5.678;2024-02-15T12:55:36;16.4;75.9
78522;SHT31;67819;51.972;5.678;2024-02-15T12:58:11;16.5;75.5
78522;SHT31;67819;51.972;5.678;2024-02-15T13:00:41;16.5;75.6
78522;SHT31;67819;51.972;5.678;2024-02-15T13:03:11;16.6;75.2
78522;SHT31;67819;51.972;5.678;2024-02-15T13:05:43;16.6;74.7
78522;SHT31;67819;51.972;5.678;2024-02-15T13:08:12;16.7;74.2
78522;SHT31;67819;51.972;5.678;2024-02-15T13:10:42;16.7;74.9
78522;SHT31;67819;51.972;5.678;2024-02-15T13:13:11;16.8;74.4
78522;SHT31;67819;51.972;5.678;2024-02-15T13:15:40;16.9;73.3
78522;SHT31;67819;51.972;5.678;2024-02-15T13:18:10;16.9;73.2
78522;SHT31;67819;51.972;5.678;2024-02-15T13:20:40;17.0;73.4
78522;SHT31;67819;51.972;5.678;2024-02-15T13:23:10;17.0;72.7
78522;SHT31;67819;51.972;5.678;2024-02-15T13:25:48;17.0;72.0
78522;SHT31;67819;51.972;5.678;2024-02-15T13:28:18;17.1;73.1
78522;SHT31;67819;51.972;5.678;2024-02-15T13:30:47;17.1;72.0
78522;SHT31;67819;51.972;5.678;2024-02-15T13:33:16;17.2;72.0
78522;SHT31;67819;51.972;5.678;2024-02-15T13:35:45;17.2;71.4
78522;SHT31;67819;51.972;5.678;2024-02-15T13:38:14;17.3;71.2
78522;SHT31;67819;51.972;5.678;2024-02-15T13:40:47;17.3;71.1
78522;SHT31;67819;51.972;5.678;2024-02-15T13:43:18;17.4;71.1
78522;SHT31;67819;51.972;5.678;2024-02-15T13:45:46;17.4;71.5
78522;SHT31;67819;51.972;5.678;2024-02-15T13:48:15;17.5;69.2
78522;SHT31;67819;51.972;5.678;2024-02-15T13:50:44;17.5;70.5
78522;SHT31;67819;51.972;5.678;2024-02-15T13:53:14;17.5;70.8
78522;SHT31;67819;51.972;5.678;2024-02-15T13:55:44;17.5;70.4
78522;SHT31;67819;51.972;5.678;2024-02-15T13:58:14;17.5;69.5
78522;SHT31;67819;51.972;5.678;2024-02-15T14:00:42;17.5;69.9
78522;SHT31;67819;51.972;5.678;2024-02-15T14:03:11;17.5;69.8
78522;SHT31;67819;51.972;5.678;2024-02-15T14:05:41;17.5;70.7
78522;SHT31;67819;51.972;5.678;2024-02-15T14:08:12;17.5;70.3
78522;SHT31;67819;51.972;5.678;2024-02-15T14:10:43;17.6;69.7
78522;SHT31;67819;51.972;5.678;2024-02-15T14:13:12;17.6;70.6
78522;SHT31;67819;51.972;5.678;2024-02-15T14:15:40;17.7;70.2
78522;SHT31;67819;51.972;5.678;2024-02-15T14:18:11;17.7;69.0
78522;SHT31;67819;51.972;5.678;2024-02-15T14:20:40;17.8;68.9
78522;SHT31;67819;51.972;5.678;2024-02-15T14:23:10;17.9;68.9
78522;SHT31;67819;51.972;5.678;2024-02-15T14:25:40;17.9;68.4
78522;SHT31;67819;51.972;5.678;2024-02-15T14:28:09;18.0;68.2
78522;SHT31;67819;51.972;5.678;2024-02-15T14:30:39;18.0;68.2
78522;SHT31;67819;51.972;5.678;2024-02-15T14:33:25;18.0;68.4
78522;SHT31;67819;51.972;5.678;2024-02-15T14:35:53;18.0;68.4
78522;SHT31;67819;51.972;5.678;2024-02-15T14:38:22;18.0;68.0
78522;SHT31;67819;51.972;5.678;2024-02-15T14:40:51;18.0;68.5
78522;SHT31;67819;51.972;5.678;2024-02-15T14:43:22;17.9;68.7
78522;SHT31;67819;51.972;5.678;2024-02-15T14:45:52;17.9;69.3
78522;SHT31;67819;51.972;5.678;2024-02-15T14:48:22;17.9;69.2
78522;SHT31;67819;51.972;5.678;2024-02-15T14:50:51;17.9;68.3
78522;SHT31;67819;51.972;5.678;2024-02-15T14:53:20;17.9;68.8
78522;SHT31;67819;51.972;5.678;2024-02-15T14:55:49;17.9;68.4
78522;SHT31;67819;51.972;5.678;2024-02-15T14:58:19;17.9;68.7
78522;SHT31;67819;51.972;5.678;2024-02-15T15:00:48;17.9;68.5
78522;SHT31;67819;51.972;5.678;2024-02-15T15:03:18;17.9;69.0
78522;SHT31;67819;51.972;5.678;2024-02-15T15:05:46;17.8;68.4
78522;SHT31;67819;51.972;5.678;2024-02-15T15:08:31;17.8;68.7
78522;SHT31;67819;51.972;5.678;2024-02-15T15:11:18;17.8;69.1
78522;SHT31;67819;51.972;5.678;2024-02-15T15:14:03;17.8;68.3
78522;SHT31;67819;51.972;5.678;2024-02-15T15:16:32;17.8;69.2
78522;SHT31;67819;51.972;5.678;2024-02-15T15:19:01;17.8;68.6
78522;SHT31;67819;51.972;5.678;2024-02-15T15:21:30;17.8;68.6
78522;SHT31;67819;51.972;5.678;2024-02-15T15:23:59;17.8;67.8
78522;SHT31;67819;51.972;5.678;2024-02-15T15:26:27;17.8;68.2
78522;SHT31;67819;51.972;5.678;2024-02-15T15:28:57;17.7;67.9
78522;SHT31;67819;51.972;5.678;2024-02-15T15:31:26;17.7;68.7
78522;SHT31;67819;51.972;5.678;2024-02-15T15:33:55;17.7;69.0
78522;SHT31;67819;51.972;5.678;2024-02-15T15:36:24;17.7;68.6
78522;SHT31;67819;51.972;5.678;2024-02-15T15:38:53;17.7;68.0
78522;SHT31;67819;51.972;5.678;2024-02-15T15:41:21;17.7;69.0
78522;SHT31;67819;51.972;5.678;2024-02-15T15:43:50;17.6;68.5
78522;SHT31;67819;51.972;5.678;2024-02-15T15:46:19;17.6;68.7
78522;SHT31;67819;51.972;5.678;2024-02-15T15:48:50;17.6;68.2
78522;SHT31;67819;51.972;5.678;2024-02-15T15:51:19;17.6;68.1
78522;SHT31;67819;51.972;5.678;2024-02-15T15:53:47;17.6;68.2
78522;SHT31;67819;51.972;5.678;2024-02-15T15:56:17;17.6;68.0
78522;SHT31;67819;51.972;5.678;2024-02-15T15:58:46;17.6;68.4
78522;SHT31;67819;51.972;5.678;2024-02-15T16:01:15;17.5;68.3
78522;SHT31;67819;51.972;5.678;2024-02-15T16:03:47;17.5;68.7
78522;SHT31;67819;51.972;5.678;2024-02-15T16:06:16;17.5;68.7
78522;SHT31;67819;51.972;5.678;2024-02-15T16:08:45;17.5;67.7
78522;SHT31;67819;51.972;5.678;2024-02-15T16:11:14;17.4;67.7
78522;SHT31;67819;51.972;5.678;2024-02-15T16:13:43;17.4;67.7
78522;SHT31;67819;51.972;5.678;2024-02-15T16:16:14;17.4;68.3
78522;SHT31;67819;51.972;5.678;2024-02-15T16:18:45;17.3;68.2
78522;SHT31;67819;51.972;5.678;2024-02-15T16:21:13;17.3;67.4
78522;SHT31;67819;51.972;5.678;2024-02-15T16:23:43;17.2;67.6
78522;SHT31;67819;51.972;5.678;2024-02-15T16:26:12;17.2;67.8